Himki, Russia
Current Conditions -  °F | °C
As of 8:30 AM on Saturday 25 Oct 2014 (Local Time) from UUEE Reporting Station
Clear Clear  
Wind Chill:   Ceiling: Unl
Heat Index: 14°   Visibility: 6mi
Dew Point: 10°   Wind: 4mph
Humidity: 86%   Direction: NA
Pressure: 30.65"   Gusts: NA
Location:  55.89°N, 37.44°E
Report Text: UUEE 250530Z VRB02MPS CAVOK M10/M12 Q1038 07000062 57150151NOSIG
Loading
Personal Weather Stations






























Interactive Weather Map
Tropical Storm Tracking
New forecast layout! Learn more

10-Day Weather Forecast

Advertisements
Track Severe Weather on mobile